KMRY/MRY METAR and TAF weather

Enter ICAO airport designator
Station Type Date Time Source
KMRY METAR 2023/02/06 18:54 UTC NOAA

KMRY 061854Z 36004KT 10SM CLR 12/06 A3043 RMK AO2 SLP318 T01170061


Station Type Date Time Source
KMRY Decoded METAR 2023/02/06 18:54 UTC NOAA

MONTEREY PENINSULA AIRPORT, CA, United States (KMRY) 36-35N 121-51W 66M
Feb 06, 2023 - 01:54 PM EST / 2023.02.06 1854 UTC
Wind: from the N (360 degrees) at 5 MPH (4 KT):0
Visibility: 10 mile(s):0
Sky conditions: clear
Temperature: 53.1 F (11.7 C)
Dew Point: 43.0 F (6.1 C)
Relative Humidity: 68%
Pressure (altimeter): 30.43 in. Hg (1030 hPa)
ob: KMRY 061854Z 36004KT 10SM CLR 12/06 A3043 RMK AO2 SLP318 T01170061
cycle: 19

Station Type Date Time Source
KMRY TAF 2023/02/06 18:51 UTC NOAA

TAF KMRY 061720Z 0618/0718 VRB05KT P6SM SKC
FM062100 31009KT P6SM SKC
FM070200 VRB04KT P6SM SKC
FM070600 12008KT P6SM SKC
FM071000 10006KT P6SM SCT250

Example: see airport list